BXG weather

Bendigo Airport
Victoria, Australia

Public forecast

Using degrees Celsius for public forecast. Weather courtesy of forecast.io.

METAR (pilot weather report)

Closest report is Melbourne International Airport, 61.2 nm (113.3 km) SSE. Retrieved 2019/03/24 05:23 UTC (0 seconds ago):

YMML 240523Z 35024G34KT CAVOK 27/12 Q1004 FM0523 MOD TURB BLW 5000FT TILL 0800 FM0800 MOD/SEV TURB BLW 5000FT

TAF (pilot weather forecast)

Forecast is more than 12 hours old.

Closest forecast is Melbourne International Airport, 61.2 nm (113.3 km) SSE. Retrieved 2019/03/23 00:33 UTC (1 day ago):

TAF YMML 232318Z 2400/2506 36012KT CAVOK FM240200 35018G32KT CAVOK FM240800 34018G28KT CAVOK FM241400 32015G25KT 9999 FEW030 BKN060 FM241700 29015G25KT CAVOK FM242300 28020G34KT 9999 -SHRA NSC PROB30 INTER 2407/2414 VRB30G45KT 3000 TSRA BKN018 FEW050CB